• Join FlightAware (Why Join?)
  • Login
  • US Flag 
04:08AM EDT


 

Airport Tracker/Info


-or-


 

Live Flight TrackerFlight Track Log ✈ JBU1337 ✈ 08-Sep-2013 ✈ KJFK - MDST / STI

Flight Track Log - Related Links

Times and Time Zones

All times are in EDT time to prevent confusion due to time zone crossing. See the JBU1337 flight status page for this flight to view local times or setup timezone preferences in your user account.

Time Position Orientation Groundspeed Altitude Reporting Facility
EDT Latitude Longitude Course Direction KTS MPH feet Rate Location/Type
10:35PM 40.6450 -73.7750 180° South  Level FlightAware
10:44PM 40.6310 -73.7780 33° Northeast 127 146  Level FlightAware
10:44PM 40.6380 -73.7730 28° Northeast 140 161 200 2,040 Climbing FlightAware
10:45PM 40.6520 -73.7620 31° Northeast 145 167 1,200 2,040 Climbing FlightAware
10:45PM 40.6630 -73.7510 37° Northeast 169 194 1,700 1,500 Climbing FlightAware
10:45PM 40.6660 -73.7430 64° Northeast 184 212 1,900 1,860 Climbing FlightAware
10:45PM 40.6670 -73.7340 82° East 195 224 2,200 2,520 Climbing FlightAware
10:46PM 40.6660 -73.7110 93° East 196 226 3,100 2,700 Climbing FlightAware
10:46PM 40.6650 -73.7060 105° East 202 232 3,300 1,980 Climbing FlightAware
10:46PM 40.6610 -73.6980 123° Southeast 214 246 3,500 2,220 Climbing FlightAware
10:46PM 40.6550 -73.6910 138° Southeast 221 254 3,900 2,760 Climbing FlightAware
10:46PM 40.6370 -73.6760 148° Southeast 224 258 4,800 2,820 Climbing FlightAware
10:47PM 40.6160 -73.6590 148° Southeast 229 264 6,000 2,760 Climbing FlightAware
10:47PM 40.5980 -73.6430 146° Southeast 236 272 6,900 2,520 Climbing FlightAware
10:47PM 40.5770 -73.6230 144° Southeast 253 291 7,800 2,460 Climbing FlightAware
10:48PM 40.5580 -73.6050 144° Southeast 261 300 8,600 2,520 Climbing FlightAware
10:48PM 40.5450 -73.5900 139° Southeast 264 304 9,300 1,980 Climbing FlightAware
10:48PM 40.5260 -73.5630 133° Southeast 293 337 9,800 900 Climbing FlightAware
10:49PM 40.4910 -73.5100 131° Southeast 359 413 10,200 1,140 Climbing FlightAware
10:50PM 40.4550 -73.4520 129° Southeast 386 444 11,100 2,160 Climbing FlightAware
10:50PM 40.4140 -73.3870 130° Southeast 393 452 12,700 2,580 Climbing FlightAware
10:51PM 40.3720 -73.3180 129° Southeast 403 464 14,200 2,460 Climbing FlightAware
10:51PM 40.3350 -73.2580 129° Southeast 407 468 15,500 2,340 Climbing FlightAware
10:52PM 40.2930 -73.1910 129° Southeast 415 478 16,800 2,520 Climbing FlightAware
10:52PM 40.2690 -73.1670 143° Southeast 414 476 17,600 2,400 Climbing FlightAware
10:53PM 40.2040 -73.1410 163° South 417 480 18,900 1,800 Climbing FlightAware
10:53PM 40.1460 -73.1220 166° South 429 494 19,700 1,800 Climbing FlightAware
10:54PM 40.0720 -73.0970 166° South 434 499 21,000 2,040 Climbing FlightAware
10:54PM 39.9990 -73.0720 165° South 439 505 22,200 1,800 Climbing FlightAware
10:55PM 39.9330 -73.0500 166° South 443 510 23,200 1,500 Climbing FlightAware
10:56PM 39.8680 -73.0280 165° South 453 521 23,900 1,380 Climbing FlightAware
10:56PM 39.7950 -73.0090 169° South 458 527 24,800 1,440 Climbing FlightAware
10:57PM 39.7130 -72.9920 171° South 462 532 25,700 1,320 Climbing FlightAware
10:57PM 39.6440 -72.9770 170° South 474 545 26,400 1,440 Climbing FlightAware
10:58PM 39.5690 -72.9620 171° South 475 547 27,300 1,320 Climbing FlightAware
10:59PM 39.4870 -72.9440 170° South 484 557 28,000 1,200 Climbing FlightAware
10:59PM 39.4160 -72.9300 171° South 486 559 28,700 1,200 Climbing FlightAware
11:00PM 39.3310 -72.9120 171° South 491 565 29,400 1,020 Climbing FlightAware
11:00PM 39.2500 -72.8950 171° South 495 570 30,000 960 Climbing FlightAware
11:01PM 39.1770 -72.8800 171° South 500 575 30,500 1,140 Climbing FlightAware
11:01PM 39.0960 -72.8630 171° South 498 573 31,300 1,260 Climbing FlightAware
11:02PM 39.0120 -72.8460 171° South 497 572 32,100 1,380 Climbing FlightAware
11:03PM 38.9310 -72.8290 171° South 492 566 33,000 1,200 Climbing FlightAware
11:03PM 38.8600 -72.8140 171° South 493 567 33,500 960 Climbing FlightAware
11:04PM 38.7830 -72.7980 171° South 485 558 34,100 1,200 Climbing FlightAware
11:04PM 38.7050 -72.7820 171° South 488 562 34,900 1,260 Climbing FlightAware
11:05PM 38.6270 -72.7660 171° South 476 548 35,600 1,080 Climbing FlightAware
11:06PM 38.5490 -72.7510 171° South 474 545 36,200 1,140 Climbing FlightAware
11:06PM 38.4740 -72.7350 171° South 473 544 37,000 1,020 Climbing FlightAware
11:07PM 38.3970 -72.7200 171° South 475 547 37,400 480 Climbing FlightAware
11:07PM 38.3260 -72.7050 171° South 471 542 37,600 780 Climbing FlightAware
11:08PM 38.2490 -72.6900 171° South 468 539 38,300 1,200 Climbing FlightAware
11:08PM 38.1790 -72.6750 170° South 455 524 39,000 540 Climbing FlightAware
11:09PM 38.0950 -72.6580 171° South 443 510 39,000  Level FlightAware
11:10PM 38.0290 -72.6450 171° South 456 525 39,000  Level FlightAware
11:10PM 37.9230 -72.6240 171° South 455 524 39,000  Level FlightAware
11:11PM 37.8390 -72.6070 171° South 459 528 39,000  Level FlightAware
11:12PM 37.7620 -72.5900 170° South 459 528 39,000  Level FlightAware
11:13PM 37.6430 -72.5680 172° South 458 527 39,000  Level FlightAware
11:13PM 37.5750 -72.5530 170° South 458 527 39,000  Level FlightAware
11:14PM 37.4850 -72.5350 171° South 460 529 39,000  Level FlightAware
11:15PM 37.4210 -72.5210 170° South 460 529 39,000  Level FlightAware
11:15PM 37.3570 -72.5070 170° South 460 529 39,000  Level FlightAware
11:16PM 37.2930 -72.4930 170° South 460 529 39,000 -60 Level FlightAware
11:16PM 37.1700 -72.4740 173° South 39,100 -120 Climbing FlightAware
11:17PM 37.0742 -72.4561 173° South 460 529 38,900 -120 Descending New York Center
11:18PM 36.9472 -72.4322 171° South 460 529 38,900  Level New York Center
11:19PM 36.8222 -72.4061 171° South 467 537 38,900  Level New York Center
11:20PM 36.6994 -72.3956 176° South 460 529 39,000  Climbing New York Center
11:21PM 36.5681 -72.3981 181° South 455 524 39,000  Level New York Center
11:22PM 36.4447 -72.3981 180° South 454 522 39,000  Level New York Center
11:23PM 36.3322 -72.3981 180° South 445 512 39,000 -60 Level New York Center
11:24PM 36.2008 -72.4003 181° South 440 506 38,900  Descending New York Center
11:25PM 36.0819 -72.4003 180° South 441 507 39,000  Climbing New York Center
11:26PM 35.9628 -72.4028 181° South 435 501 39,000  Level New York Center
11:27PM 35.8439 -72.4028 180° South 435 501 39,000  Level New York Center
11:28PM 35.7231 -72.4028 180° South 435 501 39,000  Level New York Center
11:29PM 35.6017 -72.4283 190° South 434 499 39,000  Level New York Center
11:30PM 35.4950 -72.4439 187° South 427 491 39,000 -60 Level New York Center
11:31PM 35.3697 -72.4489 182° South 427 491 38,900  Descending New York Center
11:33PM 35.2068 -72.4251 173° South  Level FlightAware Approximate
11:36PM 35.0500 -72.4167 175° South 424 488 39,000  Level New York Oceanic (ODAPS)
11:40PM 34.3567 -72.3345 176° South  Level FlightAware Approximate
11:41PM 34.2355 -72.3238 176° South  Level FlightAware Approximate
11:42PM 34.1019 -72.3128 175° South 424 488 39,000  Level FlightAware Transoceanic
11:43PM 33.9833 -72.3000 167° South 424 488 39,000  Level FlightAware Transoceanic
11:44PM 33.8653 -72.2677 167° South 424 488 39,000  Level FlightAware Transoceanic
11:44PM 33.9833 -72.3000 167° South 434 499 39,000  Level New York Oceanic (ODAPS)
11:45PM 33.7472 -72.2354 167° South 424 488 39,000  Level FlightAware Transoceanic
11:46PM 33.6291 -72.2033 167° South 424 488 39,000  Level FlightAware Transoceanic
11:47PM 33.5111 -72.1712 167° South 424 488 39,000  Level FlightAware Transoceanic
11:48PM 33.3930 -72.1393 167° South 424 488 39,000  Level FlightAware Transoceanic
11:49PM 33.2749 -72.1074 167° South 424 488 39,000  Level FlightAware Transoceanic
11:50PM 33.1568 -72.0756 167° South 424 488 39,000  Level FlightAware Transoceanic
11:51PM 33.0387 -72.0439 167° South 434 499 39,000  Level FlightAware Transoceanic
11:52PM 32.9205 -72.0122 167° South 434 499 39,000  Level FlightAware Transoceanic
11:53PM 32.8024 -71.9807 167° South 434 499 39,000  Level FlightAware Transoceanic
11:54PM 32.6843 -71.9492 167° South 434 499 39,000  Level FlightAware Transoceanic
11:55PM 32.5661 -71.9178 167° South 434 499 39,000  Level FlightAware Transoceanic
11:56PM 32.4480 -71.8866 167° South 434 499 39,000  Level FlightAware Transoceanic
11:57PM 32.3298 -71.8553 167° South 434 499 39,000  Level FlightAware Transoceanic
11:58PM 32.2116 -71.8242 167° South 434 499 39,000  Level FlightAware Transoceanic
11:59PM 32.0934 -71.7932 167° South 434 499 39,000  Level FlightAware Transoceanic
12:00AM 31.9753 -71.7622 167° South 434 499 39,000  Level FlightAware Transoceanic
12:01AM 31.8571 -71.7313 167° South 434 499 39,000  Level FlightAware Transoceanic
12:02AM 31.7389 -71.7005 168° South 434 499 39,000  Level FlightAware Transoceanic
12:03AM 31.6207 -71.6697 168° South 434 499 39,000  Level FlightAware Transoceanic
12:04AM 31.5025 -71.6391 168° South 434 499 39,000  Level FlightAware Transoceanic
12:05AM 31.3842 -71.6085 168° South 434 499 39,000  Level FlightAware Transoceanic
12:06AM 31.2660 -71.5780 168° South 434 499 39,000  Level FlightAware Transoceanic
12:07AM 31.1478 -71.5476 168° South 434 499 39,000  Level FlightAware Transoceanic
12:08AM 31.0295 -71.5172 168° South 434 499 39,000  Level FlightAware Transoceanic
12:09AM 30.9113 -71.4870 168° South 434 499 39,000  Level FlightAware Transoceanic
12:10AM 30.7930 -71.4568 168° South 434 499 39,000  Level FlightAware Transoceanic
12:11AM 30.6748 -71.4267 168° South 434 499 39,000  Level FlightAware Transoceanic
12:12AM 30.5565 -71.3966 168° South 434 499 39,000  Level FlightAware Transoceanic
12:13AM 30.4382 -71.3666 168° South 434 499 39,000  Level FlightAware Transoceanic
12:14AM 30.3199 -71.3367 168° South 434 499 39,000  Level FlightAware Transoceanic
12:15AM 30.2016 -71.3069 168° South 434 499 39,000  Level FlightAware Transoceanic
12:16AM 30.0833 -71.2771 168° South 434 499 39,000  Level FlightAware Transoceanic
12:17AM 29.9650 -71.2474 168° South 434 499 39,000  Level FlightAware Transoceanic
12:18AM 29.8467 -71.2178 168° South 434 499 39,000  Level FlightAware Transoceanic
12:19AM 29.7284 -71.1883 168° South 434 499 39,000  Level FlightAware Transoceanic
12:20AM 29.6101 -71.1588 168° South 434 499 39,000  Level FlightAware Transoceanic
12:21AM 29.4918 -71.1294 168° South 434 499 39,000  Level FlightAware Transoceanic
12:22AM 29.3734 -71.1000 168° South 434 499 39,000  Level FlightAware Transoceanic
12:23AM 29.2551 -71.0707 168° South 434 499 39,000  Level FlightAware Transoceanic
12:24AM 29.1367 -71.0415 168° South 434 499 39,000  Level FlightAware Transoceanic
12:25AM 29.0184 -71.0124 168° South 434 499 39,000  Level FlightAware Transoceanic
12:26AM 28.9000 -70.9833 168° South 434 499 39,000  Level FlightAware Transoceanic
12:27AM 28.7819 -70.9541 168° South 434 499 39,000  Level FlightAware Transoceanic
12:28AM 28.6638 -70.9249 168° South 434 499 39,000  Level FlightAware Transoceanic
12:29AM 28.5457 -70.8957 168° South 434 499 39,000  Level FlightAware Transoceanic
12:29AM 28.9000 -70.9833 168° South 433 498 39,000  Level New York Oceanic (ODAPS)
12:30AM 28.4276 -70.8667 168° South 434 499 39,000  Level FlightAware Transoceanic
12:31AM 28.3095 -70.8376 168° South 434 499 39,000  Level FlightAware Transoceanic
12:32AM 28.1914 -70.8087 168° South 434 499 39,000  Level FlightAware Transoceanic
12:33AM 28.0732 -70.7798 168° South 434 499 39,000  Level FlightAware Transoceanic
12:34AM 27.9551 -70.7510 168° South 434 499 39,000  Level FlightAware Transoceanic
12:35AM 27.8370 -70.7223 168° South 433 498 39,000  Level FlightAware Transoceanic
12:36AM 27.7188 -70.6936 168° South 433 498 39,000  Level FlightAware Transoceanic
12:37AM 27.6007 -70.6649 168° South 433 498 39,000  Level FlightAware Transoceanic
12:38AM 27.4825 -70.6364 168° South 433 498 39,000  Level FlightAware Transoceanic
12:39AM 27.3644 -70.6079 168° South 433 498 39,000  Level FlightAware Transoceanic
12:40AM 27.2462 -70.5794 168° South 433 498 39,000  Level FlightAware Transoceanic
12:41AM 27.1280 -70.5510 168° South 433 498 39,000  Level FlightAware Transoceanic
12:42AM 27.0099 -70.5227 168° South 433 498 39,000  Level FlightAware Transoceanic
12:43AM 26.8917 -70.4945 168° South 433 498 39,000  Level FlightAware Transoceanic
12:44AM 26.7735 -70.4663 168° South 433 498 39,000  Level FlightAware Transoceanic
12:45AM 26.6553 -70.4381 168° South 433 498 39,000  Level FlightAware Transoceanic
12:46AM 26.5371 -70.4100 168° South 433 498 39,000  Level FlightAware Transoceanic
12:47AM 26.4189 -70.3820 168° South 433 498 39,000  Level FlightAware Transoceanic
12:48AM 26.3007 -70.3540 168° South 433 498 39,000  Level FlightAware Transoceanic
12:49AM 26.1825 -70.3261 168° South 433 498 39,000  Level FlightAware Transoceanic
12:50AM 26.0642 -70.2982 168° South 433 498 39,000  Level FlightAware Transoceanic
12:51AM 25.9460 -70.2704 168° South 433 498 39,000  Level FlightAware Transoceanic
12:52AM 25.8278 -70.2427 168° South 433 498 39,000  Level FlightAware Transoceanic
12:53AM 25.7095 -70.2150 168° South 433 498 39,000  Level FlightAware Transoceanic
12:54AM 25.5913 -70.1874 168° South 433 498 39,000  Level FlightAware Transoceanic
12:55AM 25.4730 -70.1598 168° South 433 498 39,000  Level FlightAware Transoceanic
12:56AM 25.3548 -70.1323 168° South 433 498 39,000  Level FlightAware Transoceanic
12:57AM 25.2365 -70.1048 168° South 433 498 39,000  Level FlightAware Transoceanic
12:58AM 25.1183 -70.0774 168° South 433 498 39,000  Level FlightAware Transoceanic
12:59AM 25.0000 -70.0500 185° South 433 498 39,000  Level FlightAware Transoceanic
01:00AM 24.8887 -70.0614 185° South 433 498 39,000  Level FlightAware Transoceanic
01:01AM 24.7773 -70.0728 185° South 433 498 39,000  Level FlightAware Transoceanic
01:02AM 24.6660 -70.0842 185° South 433 498 39,000  Level FlightAware Transoceanic
01:03AM 24.5547 -70.0956 185° South 433 498 39,000  Level FlightAware Transoceanic
01:04AM 24.4433 -70.1069 185° South 433 498 39,000  Level FlightAware Transoceanic
01:04AM 24.4208 -70.1481 185° South 422 486 39,000  Level Miami Center
01:05AM 24.3320 -70.1182 185° South 433 498 39,000  Level FlightAware Transoceanic
01:05AM 24.3056 -70.1683 189° South 419 482 39,000  Level Miami Center
01:06AM 24.2207 -70.1295 185° South 433 498 39,000  Level FlightAware Transoceanic
01:06AM 24.1892 -70.1886 189° South 421 484 39,000  Level Miami Center
01:07AM 24.1093 -70.1408 185° South 433 498 39,000  Level FlightAware Transoceanic
01:07AM 24.0722 -70.2089 189° South 422 486 39,000  Level Miami Center
01:08AM 23.9980 -70.1520 185° South 433 498 39,000  Level FlightAware Transoceanic
01:08AM 23.9550 -70.2294 189° South 424 488 39,000  Level Miami Center
01:09AM 23.8867 -70.1633 185° South 433 498 39,000  Level FlightAware Transoceanic
01:09AM 23.8358 -70.2478 188° South 427 491 39,000  Level Miami Center
01:10AM 23.7169 -70.2672 189° South 429 494 39,000  Level Miami Center
01:11AM 23.5967 -70.2861 188° South 432 497 39,000  Level Miami Center
01:12AM 23.4758 -70.3056 188° South 435 501 39,000  Level Miami Center
01:13AM 23.3550 -70.3264 189° South 437 503 39,000  Level Miami Center
01:14AM 23.2333 -70.3453 188° South 438 504 39,000  Level Miami Center
01:15AM 23.1119 -70.3647 188° South 439 505 39,000  Level Miami Center
01:16AM 22.9903 -70.3844 188° South 439 505 39,000  Level Miami Center
01:17AM 22.8453 -70.4097 189° South 439 505 39,000  Level Miami Center
01:18AM 22.7253 -70.4289 188° South 437 503 39,000  Level Miami Center
01:19AM 22.6017 -70.4475 188° South 440 506 39,000  Level Miami Center
01:20AM 22.4822 -70.4678 189° South 438 504 39,000  Level Miami Center
01:21AM 22.3614 -70.4883 189° South 438 504 39,000  Level Miami Center
01:22AM 22.2414 -70.5078 189° South 436 502 39,000  Level Miami Center
01:23AM 22.1458 -70.5222 188° South 434 499 39,000  Level Miami Center
01:24AM 22.0247 -70.5417 188° South 435 501 39,000  Level Miami Center
01:25AM 21.9056 -70.5608 188° South 433 498 39,000  Level Miami Center
01:26AM 21.7861 -70.5803 189° South 432 497 39,000  Level Miami Center
01:27AM 21.6686 -70.5989 188° South 428 493 39,000  Level Miami Center
01:28AM 21.5506 -70.6178 188° South 427 491 39,000  Level Miami Center
01:29AM 21.4325 -70.6358 188° South 425 489 39,000 -240 Level Miami Center
01:30AM 21.3136 -70.6544 188° South 425 489 38,600 -660 Descending Miami Center
01:31AM 21.1933 -70.6717 188° South 428 493 37,700 -2,160 Descending Miami Center
01:32AM 21.0706 -70.6906 188° South 433 498 34,300 -3,300 Descending Miami Center
01:33AM 20.9458 -70.7108 189° South 441 507 31,100 -2,820 Descending Miami Center
01:34AM 20.8225 -70.7297 188° South 444 511 28,800 -2,340 Descending Miami Center
01:35AM 20.7011 -70.7486 188° South 442 509 26,400 -2,400 Descending Miami Center
01:36AM 20.5817 -70.7661 188° South 436 502 24,000 -2,520 Descending Miami Center
01:37AM 20.4622 -70.7867 189° South 433 498 21,500 -2,460 Descending Miami Center
01:38AM 20.3458 -70.8042 188° South 429 494 19,000 -2,580 Descending Miami Center
01:39AM 20.2322 -70.8244 190° South 420 483 16,500 -2,640 Descending Miami Center
01:41AM 20.0245 -70.7690 163° South  Level Estimated
01:48AM 19.4000 -70.6000 North  Level FlightAware Approximate
01:49AM 19.4061 -70.6047 North  Level Estimated
01:50AM 19.4061 -70.6047 North  Level Estimated
01:51AM 19.4061 -70.6047 North  Level Estimated
01:52AM 19.4061 -70.6047 North  Level Estimated
01:53AM 19.4061 -70.6047 North  Level Estimated
01:54AM 19.4061 -70.6047 North  Level Estimated
01:55AM 19.4061 -70.6047 North  Level Estimated
01:56AM 19.4061 -70.6047 North  Level Estimated
01:57AM 19.4061 -70.6047 North  Level Estimated
01:58AM 19.4061 -70.6047 North  Level Estimated
01:59AM 19.4061 -70.6047 North  Level Estimated